Weather at RBC Airport

Public forecast

Using degrees Fahrenheit for public forecast. Weather courtesy of forecast.io.

Closest aviation weather report (METAR) to RBC Airport

Closest report is Jonesboro Municipal Airport, 7.9 nm (14.6 km) ENE. Retrieved 2021/10/16 03:53 UTC (50 minutes ago):

KJBR 160353Z AUTO 33009KT 10SM CLR 13/08 A3009 RMK AO2 SLP187 T01280083

Closest aviation forecast (TAF) to RBC Airport

Closest forecast is Jonesboro Municipal Airport, 7.9 nm (14.6 km) ENE. Retrieved 2021-10-16 00:33 UTC (4 hours ago):

TAF KJBR 152331Z 1600/1624 32015G24KT P6SM VCSH SCT020 BKN100 TEMPO 1600/1603 BKN020 FM160300 33012KT P6SM SCT020 FM160800 30006KT P6SM SKC FM161500 31011KT P6SM SKC